Time;durP1;ratioP1;P1;durP2;ratioP2;P2;SDS_P1;SDS_P2;PMS_P1;PMS_P2;Temp;Humidity;BMP_temperature;BMP_pressure;BME280_temperature;BME280_humidity;BME280_pressure;Samples;Min_cycle;Max_cycle;Signal;HPM_P1;HPM_P2
2022/03/27 00:01:37;;;;;;;26.90;9.00;;;10.50;64.40;;;;;;5077729;28;20028;-67
2022/03/27 00:04:02;;;;;;;19.75;9.13;;;10.40;64.50;;;;;;5077679;28;20278;-66
2022/03/27 00:06:28;;;;;;;23.13;9.55;;;10.40;64.90;;;;;;5095660;28;20032;-67
2022/03/27 00:08:54;;;;;;;21.53;10.30;;;10.30;64.90;;;;;;5095698;28;20027;-67
2022/03/27 00:11:26;;;;;;;28.43;10.50;;;10.30;65.20;;;;;;5095684;28;20363;-67
2022/03/27 00:14:06;;;;;;;24.20;11.02;;;10.30;65.50;;;;;;5077734;28;20023;-67
2022/03/27 00:16:32;;;;;;;23.50;10.20;;;10.30;65.60;;;;;;5077289;28;20024;-66
2022/03/27 00:18:58;;;;;;;;;;;10.30;65.80;;;;;;5096211;28;20040;-66
2022/03/27 00:21:24;;;;;;;20.98;9.40;;;10.20;66.20;;;;;;5095488;28;19904;-66
2022/03/27 00:23:52;;;;;;;23.95;10.23;;;10.20;66.40;;;;;;5077033;28;20110;-67
2022/03/27 00:26:19;;;;;;;23.30;9.93;;;10.10;66.60;;;;;;5095607;28;20078;-67
2022/03/27 00:28:44;;;;;;;;;;;10.10;66.90;;;;;;5077699;28;20025;-67
2022/03/27 00:31:12;;;;;;;23.88;10.60;;;10.00;66.90;;;;;;5077022;28;20383;-67
2022/03/27 00:33:41;;;;;;;19.83;10.68;;;9.90;66.90;;;;;;5095394;28;20024;-67
2022/03/27 00:36:10;;;;;;;20.70;9.48;;;9.80;67.10;;;;;;5096377;28;20024;-67
2022/03/27 00:38:36;;;;;;;23.70;9.23;;;9.80;67.30;;;;;;5077736;28;20478;-67
2022/03/27 00:41:02;;;;;;;23.52;9.93;;;9.80;67.50;;;;;;5095317;28;20039;-67
2022/03/27 00:43:28;;;;;;;24.52;9.50;;;9.70;67.70;;;;;;5095356;28;20535;-67
2022/03/27 00:45:55;;;;;;;21.27;9.73;;;9.70;67.70;;;;;;5095324;28;20158;-67
2022/03/27 00:48:22;;;;;;;27.08;9.75;;;9.70;67.80;;;;;;5095020;28;20041;-67
2022/03/27 00:50:49;;;;;;;19.40;9.80;;;9.70;68.10;;;;;;5095237;28;20107;-67
2022/03/27 00:53:15;;;;;;;22.35;10.15;;;9.60;68.30;;;;;;5094873;28;20500;-66
2022/03/27 00:55:41;;;;;;;20.73;9.90;;;9.50;68.80;;;;;;5076885;28;20024;-67
2022/03/27 00:58:08;;;;;;;23.58;10.40;;;9.40;69.10;;;;;;5076986;28;20119;-67
2022/03/27 01:00:43;;;;;;;22.75;9.68;;;9.40;69.40;;;;;;5094902;28;20027;-66
2022/03/27 01:03:11;;;;;;;27.88;9.75;;;9.30;69.60;;;;;;5078014;28;20059;-66
2022/03/27 01:05:38;;;;;;;25.65;9.55;;;9.30;69.90;;;;;;5096969;28;20040;-67
2022/03/27 01:08:09;;;;;;;22.92;9.88;;;9.20;70.20;;;;;;5097126;28;20024;-67
2022/03/27 01:10:35;;;;;;;21.73;10.82;;;9.20;70.50;;;;;;5079385;28;20032;-66
2022/03/27 01:13:15;;;;;;;25.80;11.65;;;9.10;70.80;;;;;;5098343;28;20474;-66
2022/03/27 01:15:45;;;;;;;23.02;9.57;;;9.00;71.40;;;;;;5099173;28;20028;-67
2022/03/27 01:18:12;;;;;;;26.10;10.63;;;8.80;71.90;;;;;;5098297;28;20032;-66
2022/03/27 01:20:40;;;;;;;30.13;10.68;;;8.70;72.50;;;;;;5096940;28;20028;-67
2022/03/27 01:23:14;;;;;;;23.67;9.32;;;8.60;73.20;;;;;;5095991;28;20374;-66
2022/03/27 01:25:44;;;;;;;24.27;9.82;;;8.50;73.70;;;;;;5094652;28;20024;-66
2022/03/27 01:28:12;;;;;;;21.25;10.48;;;8.40;74.00;;;;;;5094286;28;20017;-66
2022/03/27 01:30:38;;;;;;;24.65;10.30;;;8.40;74.50;;;;;;5094516;28;20032;-66
2022/03/27 01:33:05;;;;;;;22.90;9.65;;;8.40;74.90;;;;;;5094108;28;20024;-66
2022/03/27 01:35:32;;;;;;;33.03;10.98;;;8.30;75.40;;;;;;5094197;28;20028;-65
2022/03/27 01:37:58;;;;;;;24.70;10.45;;;8.30;75.80;;;;;;5094980;28;20190;-66
2022/03/27 01:40:24;;;;;;;23.02;10.23;;;8.30;76.40;;;;;;5095500;28;20496;-66
2022/03/27 01:42:53;;;;;;;23.42;10.40;;;8.20;77.00;;;;;;5094616;28;20036;-66
2022/03/27 01:45:19;;;;;;;26.60;11.70;;;8.20;77.50;;;;;;5094326;28;20028;-66
2022/03/27 01:47:44;;;;;;;24.60;10.57;;;8.20;78.00;;;;;;5076076;28;20446;-67
2022/03/27 01:50:10;;;;;;;27.43;11.57;;;8.20;78.50;;;;;;5093845;28;20451;-66
2022/03/27 01:52:36;;;;;;;26.80;11.38;;;8.20;78.90;;;;;;5075860;28;20054;-65
2022/03/27 01:55:05;;;;;;;25.08;10.40;;;8.20;79.40;;;;;;5075569;28;20032;-66
2022/03/27 01:57:31;;;;;;;26.65;10.55;;;8.20;79.80;;;;;;5093715;28;20390;-66
2022/03/27 01:59:57;;;;;;;24.53;10.07;;;8.20;80.30;;;;;;5093679;28;20028;-66
2022/03/27 02:02:26;;;;;;;26.10;10.83;;;8.10;81.00;;;;;;5075263;28;20060;-66
2022/03/27 02:04:52;;;;;;;29.55;12.30;;;8.10;81.80;;;;;;5074993;28;20425;-66
2022/03/27 02:07:18;;;;;;;24.63;12.35;;;8.10;82.10;;;;;;5075723;28;20114;-66
2022/03/27 02:09:45;;;;;;;24.90;11.90;;;8.10;82.70;;;;;;5093621;28;20020;-66
2022/03/27 02:12:11;;;;;;;31.30;11.27;;;8.00;83.20;;;;;;5075765;28;20047;-66
2022/03/27 02:14:37;;;;;;;23.05;11.07;;;8.00;84.00;;;;;;5093809;28;20025;-66
2022/03/27 02:17:03;;;;;;;22.40;10.55;;;7.90;84.50;;;;;;5093719;28;20028;-66
2022/03/27 02:19:29;;;;;;;29.55;11.65;;;7.90;85.10;;;;;;5093895;28;20020;-66
2022/03/27 02:21:54;;;;;;;25.70;11.53;;;7.90;85.80;;;;;;5093609;28;20496;-67
2022/03/27 02:24:20;;;;;;;24.23;11.30;;;7.80;86.50;;;;;;5093898;28;20056;-66
2022/03/27 02:26:47;;;;;;;22.57;11.40;;;7.80;87.20;;;;;;5093686;28;20620;-67
2022/03/27 02:29:16;;;;;;;26.92;11.52;;;7.80;88.30;;;;;;5093353;28;20020;-67
2022/03/27 02:31:43;;;;;;;22.38;10.70;;;7.70;89.20;;;;;;5075077;28;20386;-67
2022/03/27 02:34:09;;;;;;;25.35;10.20;;;7.70;90.00;;;;;;5075044;28;20020;-68
2022/03/27 02:36:34;;;;;;;43.87;12.27;;;7.70;90.40;;;;;;5093303;28;20386;-67
2022/03/27 02:39:00;;;;;;;29.37;11.13;;;7.60;90.90;;;;;;5093229;28;20130;-66
2022/03/27 02:41:26;;;;;;;25.83;10.68;;;7.60;91.20;;;;;;5090585;22;20432;-60
2022/03/27 02:43:51;;;;;;;27.87;11.00;;;7.60;91.40;;;;;;5034871;28;20036;-62
2022/03/27 02:46:17;;;;;;;24.70;11.37;;;7.60;91.60;;;;;;5052806;28;20086;-60
2022/03/27 02:48:42;;;;;;;27.47;11.57;;;7.60;91.90;;;;;;5052800;28;20025;-62
2022/03/27 02:51:08;;;;;;;27.00;10.47;;;7.60;92.10;;;;;;5052539;28;20427;-64
2022/03/27 02:53:34;;;;;;;31.27;10.90;;;7.60;92.20;;;;;;5053487;28;20021;-61
2022/03/27 02:56:00;;;;;;;25.53;10.33;;;7.50;92.50;;;;;;5052744;28;20021;-61
2022/03/27 02:58:26;;;;;;;27.00;10.93;;;7.50;93.00;;;;;;5052528;28;20112;-60
2022/03/27 03:00:52;;;;;;;24.60;11.77;;;7.50;93.40;;;;;;5052446;28;20028;-62
2022/03/27 03:03:18;;;;;;;28.77;10.80;;;7.40;93.80;;;;;;5052476;28;20025;-61
2022/03/27 03:05:44;;;;;;;26.27;10.93;;;7.40;94.10;;;;;;5052693;28;20098;-60
2022/03/27 03:08:11;;;;;;;31.93;12.03;;;7.40;94.50;;;;;;5052589;28;20057;-61
2022/03/27 03:10:38;;;;;;;20.98;9.50;;;7.30;94.70;;;;;;5053285;28;20017;-60
2022/03/27 03:13:05;;;;;;;22.73;10.18;;;7.30;94.90;;;;;;5035206;28;20027;-60
2022/03/27 03:15:31;;;;;;;27.10;11.40;;;7.20;95.20;;;;;;5052966;28;20025;-61
2022/03/27 03:17:57;;;;;;;24.77;10.40;;;7.30;95.40;;;;;;5052724;28;20056;-61
2022/03/27 03:20:22;;;;;;;20.13;10.07;;;7.30;95.50;;;;;;5052413;28;20263;-60
2022/03/27 03:22:48;;;;;;;24.73;10.38;;;7.20;95.70;;;;;;5034372;28;20044;-62
2022/03/27 03:25:14;;;;;;;25.60;10.70;;;7.20;95.80;;;;;;5052318;28;20025;-60
2022/03/27 03:27:39;;;;;;;21.63;9.30;;;7.20;96.10;;;;;;5052727;28;20263;-62
2022/03/27 03:30:07;;;;;;;21.27;11.60;;;7.20;96.20;;;;;;5052580;28;20028;-62
2022/03/27 03:32:34;;;;;;;24.20;10.18;;;7.20;96.40;;;;;;5054373;28;20017;-60
2022/03/27 03:35:01;;;;;;;24.98;10.45;;;7.20;96.50;;;;;;5056062;28;20024;-58
2022/03/27 03:37:27;;;;;;;28.13;10.52;;;7.20;96.70;;;;;;5056450;28;20029;-62
2022/03/27 03:39:52;;;;;;;19.30;9.83;;;7.10;96.90;;;;;;5057014;28;20032;-61
2022/03/27 03:42:18;;;;;;;23.87;10.57;;;7.10;97.40;;;;;;5056251;28;20040;-58
2022/03/27 03:44:44;;;;;;;30.17;10.43;;;7.10;97.40;;;;;;5055867;28;20031;-62
2022/03/27 03:47:10;;;;;;;29.50;10.23;;;7.00;97.70;;;;;;5055914;28;20017;-60
2022/03/27 03:49:37;;;;;;;23.00;10.38;;;7.00;98.00;;;;;;5056496;28;20379;-61
2022/03/27 03:52:04;;;;;;;28.58;11.35;;;6.90;98.20;;;;;;5055825;28;20025;-59
2022/03/27 03:54:30;;;;;;;;;;;6.90;98.40;;;;;;5038024;28;20029;-62
2022/03/27 03:56:55;;;;;;;23.60;10.68;;;6.90;98.50;;;;;;5055351;28;19912;-62
2022/03/27 03:59:21;;;;;;;28.47;11.30;;;6.90;98.50;;;;;;5055637;28;20499;-61
2022/03/27 04:01:46;;;;;;;33.30;11.60;;;6.90;98.60;;;;;;5055503;28;20021;-62
2022/03/27 04:04:12;;;;;;;24.50;11.47;;;6.90;98.70;;;;;;5055543;28;20102;-60
2022/03/27 04:06:37;;;;;;;20.27;9.30;;;6.90;98.70;;;;;;5055402;28;20448;-59
2022/03/27 04:09:03;;;;;;;22.53;11.07;;;6.90;98.80;;;;;;5055380;28;20120;-61
2022/03/27 04:11:29;;;;;;;28.07;11.90;;;6.90;99.00;;;;;;5055447;28;20071;-62
2022/03/27 04:13:54;;;;;;;27.73;11.37;;;6.80;99.10;;;;;;5038035;28;20025;-58
2022/03/27 04:16:20;;;;;;;27.93;11.00;;;6.80;99.20;;;;;;5055434;28;20025;-62
2022/03/27 04:18:46;;;;;;;20.87;9.77;;;6.80;99.40;;;;;;5056158;28;20096;-61
2022/03/27 04:21:11;;;;;;;25.77;11.35;;;6.70;99.60;;;;;;5055724;28;20127;-60
2022/03/27 04:23:37;;;;;;;23.27;9.33;;;6.70;99.90;;;;;;5055578;28;20029;-62
2022/03/27 04:26:03;;;;;;;25.37;11.43;;;6.60;99.90;;;;;;5055075;28;20032;-60
2022/03/27 04:28:29;;;;;;;19.58;9.68;;;6.60;99.90;;;;;;5055476;28;20025;-61
2022/03/27 04:30:55;;;;;;;29.58;11.40;;;6.60;99.90;;;;;;5037790;28;20032;-60
2022/03/27 04:33:21;;;;;;;27.25;11.15;;;6.60;99.90;;;;;;5054910;28;20025;-63
2022/03/27 04:35:47;;;;;;;28.20;11.32;;;6.60;99.90;;;;;;5054953;28;20079;-62
2022/03/27 04:38:13;;;;;;;22.83;10.27;;;6.60;99.90;;;;;;5054759;28;20059;-60
2022/03/27 04:40:39;;;;;;;29.50;11.85;;;6.60;99.90;;;;;;5054928;28;20029;-62
2022/03/27 04:43:05;;;;;;;25.20;10.93;;;6.50;99.90;;;;;;5036836;28;20048;-60
2022/03/27 04:45:31;;;;;;;29.77;12.15;;;6.60;99.90;;;;;;5037395;28;20483;-62
2022/03/27 04:47:57;;;;;;;32.15;10.90;;;6.60;99.90;;;;;;5054992;28;20036;-59
2022/03/27 04:50:23;;;;;;;26.43;11.70;;;6.60;99.90;;;;;;5054756;28;20020;-61
2022/03/27 04:52:48;;;;;;;26.98;11.18;;;6.70;99.90;;;;;;5036477;28;20029;-57
2022/03/27 04:55:14;;;;;;;26.90;11.33;;;6.70;99.90;;;;;;5054816;28;20108;-60
2022/03/27 04:57:41;;;;;;;24.30;11.32;;;6.70;99.90;;;;;;5054465;28;20057;-61
2022/03/27 05:00:14;;;;;;;23.40;10.73;;;6.70;99.90;;;;;;5054350;28;20033;-62
2022/03/27 05:02:41;;;;;;;24.15;10.88;;;6.70;99.90;;;;;;5036652;28;20499;-62
2022/03/27 05:05:10;;;;;;;23.42;10.15;;;6.70;99.90;;;;;;5055419;28;20124;-61
2022/03/27 05:07:37;;;;;;;26.30;11.50;;;6.70;99.90;;;;;;5054814;28;20067;-61
2022/03/27 05:10:07;;;;;;;22.60;11.15;;;6.70;99.90;;;;;;5054222;28;20489;-62
2022/03/27 05:12:32;;;;;;;26.67;11.05;;;6.70;99.90;;;;;;5054013;28;20036;-61
2022/03/27 05:14:58;;;;;;;28.27;10.10;;;6.70;99.90;;;;;;5054261;28;20340;-61
2022/03/27 05:17:24;;;;;;;20.57;10.27;;;6.70;99.90;;;;;;5054567;28;20111;-62
2022/03/27 05:19:49;;;;;;;24.03;11.33;;;6.70;99.90;;;;;;5054308;28;20025;-61
2022/03/27 05:22:16;;;;;;;30.63;11.97;;;6.60;99.90;;;;;;5054169;28;20044;-61
2022/03/27 05:24:42;;;;;;;24.85;10.52;;;6.60;99.90;;;;;;5054420;28;20021;-61
2022/03/27 05:27:08;;;;;;;24.90;11.10;;;6.60;99.90;;;;;;5036491;28;20467;-60
2022/03/27 05:29:34;;;;;;;33.25;11.85;;;6.60;99.90;;;;;;5054801;28;20029;-60
2022/03/27 05:31:59;;;;;;;25.63;11.00;;;6.60;99.90;;;;;;5054800;28;20044;-60
2022/03/27 05:34:25;;;;;;;24.20;10.63;;;6.60;99.90;;;;;;5054200;28;20372;-62
2022/03/27 05:36:51;;;;;;;23.27;10.87;;;6.60;99.90;;;;;;5053570;28;20029;-61
2022/03/27 05:39:17;;;;;;;23.30;10.40;;;6.60;99.90;;;;;;5054182;28;20119;-62
2022/03/27 05:41:43;;;;;;;23.35;10.38;;;6.60;99.90;;;;;;5054587;28;20033;-61
2022/03/27 05:44:09;;;;;;;23.33;11.50;;;6.70;99.90;;;;;;5054443;28;20546;-61
2022/03/27 05:46:35;;;;;;;23.50;10.95;;;6.70;99.90;;;;;;5054765;28;20025;-61
2022/03/27 05:49:00;;;;;;;22.92;10.55;;;6.70;99.90;;;;;;5054362;28;20112;-61
2022/03/27 05:51:26;;;;;;;24.73;10.80;;;6.70;99.90;;;;;;5037358;28;20044;-61
2022/03/27 05:53:52;;;;;;;29.83;11.90;;;6.80;99.90;;;;;;5037705;28;20030;-62
2022/03/27 05:56:17;;;;;;;26.27;11.00;;;6.80;99.90;;;;;;5036404;28;20052;-60
2022/03/27 05:58:43;;;;;;;26.60;11.53;;;6.80;99.90;;;;;;5053677;28;20017;-62
2022/03/27 06:01:09;;;;;;;24.55;11.57;;;6.80;99.90;;;;;;5053708;28;20430;-61
2022/03/27 06:03:34;;;;;;;24.57;12.00;;;6.70;99.90;;;;;;5053292;28;20100;-60
2022/03/27 06:06:00;;;;;;;23.90;11.47;;;6.70;99.90;;;;;;5053108;28;20122;-60
2022/03/27 06:08:26;;;;;;;23.70;11.67;;;6.70;99.90;;;;;;5053215;28;20025;-59
2022/03/27 06:10:52;;;;;;;22.70;11.10;;;6.70;99.90;;;;;;5053332;28;20032;-61
2022/03/27 06:13:19;;;;;;;25.83;11.87;;;6.70;99.90;;;;;;5035071;28;20025;-61
2022/03/27 06:15:46;;;;;;;27.05;12.48;;;6.70;99.90;;;;;;5053104;28;20290;-64
2022/03/27 06:18:12;;;;;;;24.92;11.07;;;6.70;99.90;;;;;;5054040;28;20052;-57
2022/03/27 06:20:39;;;;;;;26.95;11.60;;;6.70;99.90;;;;;;5053734;28;20483;-60
2022/03/27 06:23:06;;;;;;;24.73;10.88;;;6.80;99.90;;;;;;5053275;28;20032;-62
2022/03/27 06:25:33;;;;;;;25.73;11.23;;;6.90;99.90;;;;;;5053397;28;20047;-63
2022/03/27 06:27:59;;;;;;;24.80;11.68;;;6.90;99.90;;;;;;5052883;28;20071;-62
2022/03/27 06:30:27;;;;;;;22.77;10.60;;;7.00;99.90;;;;;;5053070;28;20021;-63
2022/03/27 06:32:54;;;;;;;23.95;10.98;;;7.10;99.90;;;;;;5053943;28;20126;-63
2022/03/27 06:35:22;;;;;;;23.23;10.73;;;7.10;99.90;;;;;;5038136;28;20036;-64
2022/03/27 06:37:48;;;;;;;24.45;10.55;;;7.20;99.90;;;;;;5035476;28;20052;-63
2022/03/27 06:40:15;;;;;;;24.02;11.50;;;7.30;99.90;;;;;;5053445;28;20489;-62
2022/03/27 06:42:41;;;;;;;;;;;7.30;99.90;;;;;;5035248;28;20052;-62
2022/03/27 06:45:08;;;;;;;21.35;10.57;;;7.40;99.90;;;;;;5034980;28;19951;-61
2022/03/27 06:47:33;;;;;;;26.58;11.30;;;7.50;99.90;;;;;;5052781;28;20567;-64
2022/03/27 06:50:02;;;;;;;26.33;11.23;;;7.50;99.90;;;;;;5052736;28;20064;-64
2022/03/27 06:52:28;;;;;;;22.27;10.10;;;7.60;99.90;;;;;;5052475;28;20040;-66
2022/03/27 06:54:55;;;;;;;22.05;10.15;;;7.70;99.90;;;;;;5052577;28;20051;-65
2022/03/27 06:57:21;;;;;;;23.65;11.05;;;7.70;99.90;;;;;;5034826;28;20036;-60
2022/03/27 07:05:15;;;;;;;24.75;11.98;;;8.10;99.90;;;;;;5053097;28;20518;-66
2022/03/27 07:07:44;;;;;;;22.90;10.87;;;8.20;99.90;;;;;;5055375;28;20029;-68
2022/03/27 07:10:11;;;;;;;26.20;11.40;;;8.40;99.90;;;;;;5056241;28;20032;-65
2022/03/27 07:12:37;;;;;;;23.33;11.30;;;8.50;99.90;;;;;;5056645;28;20021;-66
2022/03/27 07:15:03;;;;;;;24.55;10.65;;;8.60;99.80;;;;;;5056688;28;20041;-66
2022/03/27 07:17:30;;;;;;;21.35;11.02;;;8.70;99.60;;;;;;5056485;28;20060;-65
2022/03/27 07:19:56;;;;;;;24.38;11.23;;;8.90;99.10;;;;;;5038872;28;20063;-65
2022/03/27 07:22:22;;;;;;;26.15;11.90;;;9.00;98.70;;;;;;5057168;28;20572;-59
2022/03/27 07:24:48;;;;;;;23.13;10.93;;;9.10;98.20;;;;;;5056601;28;20048;-64
2022/03/27 07:27:14;;;;;;;25.58;11.75;;;9.30;97.80;;;;;;5056309;28;20025;-61
2022/03/27 07:29:40;;;;;;;26.38;12.13;;;9.40;97.40;;;;;;5039373;28;20352;-59
2022/03/27 07:32:07;;;;;;;24.50;10.93;;;9.50;97.00;;;;;;5055812;28;20079;-60
2022/03/27 07:34:34;;;;;;;23.10;11.00;;;9.60;96.80;;;;;;5056295;28;20033;-62
2022/03/27 07:37:00;;;;;;;23.88;11.95;;;9.70;96.60;;;;;;5038058;28;20025;-57
2022/03/27 07:39:26;;;;;;;26.88;11.82;;;9.80;96.40;;;;;;5055790;28;20040;-60
2022/03/27 07:41:51;;;;;;;27.83;11.55;;;10.00;96.00;;;;;;5055790;28;20032;-61
2022/03/27 07:44:17;;;;;;;23.93;12.20;;;10.10;95.70;;;;;;5038074;28;20029;-61
2022/03/27 07:46:43;;;;;;;22.67;11.70;;;10.20;95.30;;;;;;5056023;28;20100;-62
2022/03/27 07:49:09;;;;;;;25.90;12.10;;;10.30;95.10;;;;;;5055883;28;20060;-66
2022/03/27 07:51:35;;;;;;;23.48;11.77;;;10.40;94.80;;;;;;5056186;28;20028;-62
2022/03/27 07:54:02;;;;;;;27.85;12.55;;;10.50;94.60;;;;;;5040391;28;20028;-63
2022/03/27 07:56:29;;;;;;;32.22;12.35;;;10.60;94.00;;;;;;5055884;28;20100;-65
2022/03/27 07:58:55;;;;;;;24.27;12.15;;;10.70;94.00;;;;;;5056232;28;20020;-64
2022/03/27 08:01:22;;;;;;;24.17;11.18;;;10.80;93.50;;;;;;5056209;28;20021;-64
2022/03/27 08:03:49;;;;;;;26.85;11.77;;;10.90;93.40;;;;;;5038197;28;20036;-69
2022/03/27 08:06:15;;;;;;;28.33;12.32;;;11.00;93.20;;;;;;5039412;28;20053;-69
2022/03/27 08:08:41;;;;;;;25.15;11.60;;;11.10;93.00;;;;;;5057058;28;20071;-66
2022/03/27 08:11:07;;;;;;;26.63;12.27;;;11.20;92.60;;;;;;5056776;28;20125;-65
2022/03/27 08:13:32;;;;;;;28.17;12.07;;;11.30;92.50;;;;;;5056690;28;20075;-63
2022/03/27 08:15:58;;;;;;;20.63;12.00;;;11.40;92.40;;;;;;5056746;28;20365;-65
2022/03/27 08:18:23;;;;;;;25.33;12.60;;;11.50;92.10;;;;;;5056056;28;20021;-65
2022/03/27 08:20:49;;;;;;;27.73;12.47;;;11.60;92.00;;;;;;5038851;28;20267;-64
2022/03/27 08:23:16;;;;;;;24.77;12.35;;;11.70;91.90;;;;;;5057149;28;20025;-64
2022/03/27 08:28:25;;;;;;;23.75;11.68;;;12.00;91.40;;;;;;5057156;28;20385;-67
2022/03/27 08:30:51;;;;;;;22.00;11.13;;;12.10;91.20;;;;;;5042014;28;20115;-66
2022/03/27 08:33:17;;;;;;;20.93;10.80;;;12.20;91.10;;;;;;5059290;28;20518;-64
2022/03/27 08:35:44;;;;;;;23.75;11.30;;;12.30;90.90;;;;;;5059370;28;20056;-66
2022/03/27 08:38:10;;;;;;;;;;;12.50;90.70;;;;;;5058843;28;20033;-65
2022/03/27 08:40:38;;;;;;;23.05;11.20;;;12.70;90.30;;;;;;5057987;28;19909;-64
2022/03/27 08:43:08;;;;;;;22.30;11.10;;;12.90;89.60;;;;;;5086665;22;20036;-68
2022/03/27 08:45:34;;;;;;;25.40;12.18;;;13.10;88.00;;;;;;5075126;28;20028;-67
2022/03/27 08:47:59;;;;;;;27.38;11.90;;;13.20;87.30;;;;;;5075227;28;20032;-68
2022/03/27 08:50:25;;;;;;;26.97;11.97;;;13.80;85.10;;;;;;5075427;28;20047;-69
2022/03/27 08:53:03;;;;;;;22.77;11.13;;;15.60;80.20;;;;;;5056795;28;20036;-67
2022/03/27 08:55:50;;;;;;;20.58;12.13;;;17.80;72.90;;;;;;5075104;28;20258;-68
2022/03/27 08:58:19;;;;;;;23.67;12.13;;;19.30;66.10;;;;;;5056633;28;20078;-68
2022/03/27 09:00:45;;;;;;;23.15;11.77;;;21.50;61.60;;;;;;5074589;28;20036;-69
2022/03/27 09:03:10;;;;;;;21.23;13.65;;;23.10;56.40;;;;;;5057174;28;20103;-70
2022/03/27 09:05:37;;;;;;;;;;;23.60;53.90;;;;;;5075609;28;20028;-70
2022/03/27 09:08:07;;;;;;;18.65;11.32;;;24.20;52.90;;;;;;5074691;28;19912;-71
2022/03/27 09:10:33;;;;;;;21.75;12.52;;;24.10;51.50;;;;;;5056803;28;20112;-68
2022/03/27 09:13:00;;;;;;;20.38;12.48;;;24.70;50.60;;;;;;5074952;28;20489;-68
2022/03/27 09:15:26;;;;;;;19.13;11.85;;;24.40;50.40;;;;;;5056847;28;20044;-69
2022/03/27 09:17:56;;;;;;;;;;;23.80;50.40;;;;;;5075421;28;20025;-68
2022/03/27 09:20:41;;;;;;;21.20;12.75;;;23.90;51.10;;;;;;5074673;28;20427;-72
2022/03/27 09:23:23;;;;;;;17.95;12.52;;;23.00;50.90;;;;;;5074311;28;20033;-69
2022/03/27 09:25:57;;;;;;;30.90;12.55;;;24.40;50.20;;;;;;5074215;28;20048;-67
2022/03/27 09:28:40;;;;;;;17.30;11.15;;;25.40;48.90;;;;;;5074283;28;20100;-66
2022/03/27 09:31:27;;;;;;;22.05;11.98;;;25.50;48.20;;;;;;5056282;28;20028;-67
2022/03/27 09:33:59;;;;;;;17.92;11.05;;;25.10;47.80;;;;;;5073943;28;20405;-66
2022/03/27 09:36:30;;;;;;;17.70;11.27;;;23.60;49.50;;;;;;5072673;28;20034;-69
2022/03/27 09:39:00;;;;;;;18.65;11.32;;;24.90;48.60;;;;;;5074017;28;20044;-66
2022/03/27 09:41:37;;;;;;;18.83;12.00;;;25.40;47.10;;;;;;5073746;28;20075;-65
2022/03/27 09:44:07;;;;;;;;;;;26.40;47.20;;;;;;5073954;28;20052;-71
2022/03/27 09:46:53;;;;;;;16.02;11.15;;;27.30;46.20;;;;;;5056727;28;20437;-69
2022/03/27 09:49:43;;;;;;;22.05;11.73;;;26.10;46.50;;;;;;5073701;28;20028;-69
2022/03/27 09:52:19;;;;;;;18.42;11.65;;;26.50;46.20;;;;;;5061289;28;20436;-68
2022/03/27 09:55:07;;;;;;;21.95;12.13;;;27.30;46.10;;;;;;5073347;28;20024;-67
2022/03/27 09:57:42;;;;;;;21.25;12.35;;;26.80;45.10;;;;;;5055454;28;20024;-69
2022/03/27 10:00:18;;;;;;;18.67;11.87;;;25.80;46.00;;;;;;5073393;28;20475;-67
2022/03/27 10:02:45;;;;;;;19.08;11.93;;;27.00;45.60;;;;;;5073115;28;20425;-68
2022/03/27 10:05:18;;;;;;;17.77;12.25;;;27.10;45.50;;;;;;5054958;28;20024;-67
2022/03/27 10:07:52;;;;;;;17.00;11.60;;;26.60;45.40;;;;;;5072856;28;20027;-69
2022/03/27 10:10:20;;;;;;;16.98;11.77;;;28.00;44.90;;;;;;5073132;28;20075;-69
2022/03/27 10:12:47;;;;;;;18.27;12.15;;;29.70;43.70;;;;;;5075488;28;20023;-71
2022/03/27 10:15:17;;;;;;;17.08;12.57;;;29.30;43.00;;;;;;5057375;28;20055;-69
2022/03/27 10:17:48;;;;;;;15.57;11.98;;;28.30;43.30;;;;;;5073330;28;20029;-70
2022/03/27 10:20:17;;;;;;;20.38;12.20;;;27.40;44.50;;;;;;5073131;28;20029;-69
2022/03/27 10:22:46;;;;;;;20.10;12.25;;;27.50;44.30;;;;;;5055522;28;20025;-69
2022/03/27 10:25:16;;;;;;;19.35;12.23;;;27.10;44.70;;;;;;5073083;28;20075;-70
2022/03/27 10:27:43;;;;;;;17.70;11.40;;;26.30;44.80;;;;;;5055683;28;20028;-70
2022/03/27 10:30:10;;;;;;;18.05;10.82;;;27.40;44.80;;;;;;5055595;28;20390;-69
2022/03/27 10:32:38;;;;;;;18.60;11.20;;;29.20;43.60;;;;;;5073367;28;20027;-69
2022/03/27 10:35:18;;;;;;;16.50;11.15;;;29.00;42.30;;;;;;5073035;28;20020;-68
2022/03/27 10:38:06;;;;;;;16.73;11.13;;;28.20;43.30;;;;;;5073324;28;20025;-68
2022/03/27 10:40:57;;;;;;;17.45;12.73;;;28.50;43.50;;;;;;5073537;28;20028;-68
2022/03/27 10:43:40;;;;;;;19.70;12.27;;;29.40;42.60;;;;;;5076567;28;20028;-68
2022/03/27 10:46:22;;;;;;;20.27;12.25;;;30.00;41.90;;;;;;5076516;28;20033;-68
2022/03/27 10:48:50;;;;;;;16.55;12.43;;;28.90;42.40;;;;;;5077002;28;20021;-68
2022/03/27 10:51:24;;;;;;;17.52;12.82;;;28.50;43.00;;;;;;5077219;28;20023;-68
2022/03/27 10:54:08;;;;;;;18.67;11.35;;;29.50;42.70;;;;;;5076864;28;20471;-67
2022/03/27 10:56:37;;;;;;;20.35;11.88;;;29.00;41.80;;;;;;5076781;28;20107;-69
2022/03/27 10:59:16;;;;;;;17.40;10.80;;;28.60;42.10;;;;;;5059038;28;20046;-66
2022/03/27 11:01:50;;;;;;;19.27;12.07;;;27.90;42.50;;;;;;5058846;28;20028;-66
2022/03/27 11:04:21;;;;;;;18.75;11.63;;;26.10;44.10;;;;;;5076586;28;20479;-67
2022/03/27 11:06:47;;;;;;;21.67;12.18;;;26.00;44.30;;;;;;5076601;28;20031;-67
2022/03/27 11:09:34;;;;;;;22.45;11.77;;;25.30;45.20;;;;;;5076543;28;20023;-67
2022/03/27 11:12:04;;;;;;;22.63;13.07;;;24.00;45.60;;;;;;5058666;28;20112;-66
2022/03/27 11:14:52;;;;;;;20.58;11.10;;;22.60;48.50;;;;;;5076920;28;20415;-67
2022/03/27 11:17:46;;;;;;;21.88;12.63;;;22.10;48.90;;;;;;5076295;28;20035;-65
2022/03/27 11:20:33;;;;;;;21.38;12.15;;;21.60;49.80;;;;;;5076649;28;20382;-68
2022/03/27 11:23:02;;;;;;;21.98;12.13;;;21.00;51.00;;;;;;5076244;28;20497;-68
2022/03/27 11:25:35;;;;;;;20.98;11.55;;;20.70;50.90;;;;;;5076036;28;20402;-67
2022/03/27 11:28:07;;;;;;;20.85;10.95;;;20.30;51.60;;;;;;5058559;28;20028;-67
2022/03/27 11:30:54;;;;;;;23.25;12.02;;;20.00;52.30;;;;;;5076052;28;20025;-67
2022/03/27 11:33:20;;;;;;;;;;;19.60;52.90;;;;;;5075433;28;20025;-68
2022/03/27 11:36:21;;;;;;;24.83;10.40;;;19.50;52.90;;;;;;5076254;28;19908;-68
2022/03/27 11:39:04;;;;;;;19.38;10.40;;;19.20;53.00;;;;;;5057800;28;20032;-67
2022/03/27 11:41:42;;;;;;;20.05;11.45;;;19.00;53.40;;;;;;5058080;28;20033;-67
2022/03/27 11:47:16;;;;;;;21.95;10.40;;;18.90;53.50;;;;;;5076666;28;20422;-67
2022/03/27 11:49:42;;;;;;;17.90;9.82;;;18.90;53.80;;;;;;5075728;28;20107;-67
2022/03/27 11:52:27;;;;;;;17.95;10.50;;;19.00;53.80;;;;;;5074692;28;20090;-67
2022/03/27 11:55:07;;;;;;;19.85;10.30;;;19.00;53.60;;;;;;5075684;28;20414;-67
2022/03/27 11:57:56;;;;;;;18.73;9.65;;;18.90;53.90;;;;;;5075650;28;20107;-67
2022/03/27 12:00:39;;;;;;;21.90;10.45;;;19.00;53.80;;;;;;5076074;28;20020;-67
2022/03/27 12:03:20;;;;;;;31.70;15.30;;;19.10;54.10;;;;;;5075426;28;20021;-68
2022/03/27 12:05:47;;;;;;;16.55;10.05;;;19.00;55.10;;;;;;5057508;28;20136;-67
2022/03/27 12:08:17;;;;;;;26.45;10.82;;;19.10;53.80;;;;;;5075848;28;20025;-67
2022/03/27 12:10:57;;;;;;;28.50;11.65;;;19.00;54.00;;;;;;5057504;28;20025;-66
2022/03/27 12:13:23;;;;;;;21.20;10.05;;;18.90;53.90;;;;;;5057056;28;20029;-67
2022/03/27 12:15:51;;;;;;;20.33;10.68;;;19.00;54.10;;;;;;5075881;28;20371;-67
2022/03/27 12:18:38;;;;;;;21.05;9.48;;;19.10;53.90;;;;;;5075134;28;20082;-67
2022/03/27 12:21:10;;;;;;;19.30;10.23;;;19.20;53.80;;;;;;5075133;28;20048;-67
2022/03/27 12:23:47;;;;;;;21.65;9.82;;;19.20;53.40;;;;;;5074930;28;20087;-67
2022/03/27 12:32:06;;;;;;;16.20;9.25;;;19.40;53.00;;;;;;5074967;28;20098;-67
2022/03/27 12:34:33;;;;;;;18.15;9.80;;;19.40;53.00;;;;;;5075086;28;20028;-67
2022/03/27 12:37:09;;;;;;;23.45;10.52;;;19.50;53.00;;;;;;5056786;28;20029;-68
2022/03/27 12:39:56;;;;;;;17.88;9.30;;;19.60;53.20;;;;;;5075099;28;20017;-67
2022/03/27 12:42:33;;;;;;;18.15;9.07;;;19.60;52.80;;;;;;5058591;28;20033;-67
2022/03/27 12:45:29;;;;;;;20.10;10.07;;;19.50;52.10;;;;;;5075617;28;20052;-69
2022/03/27 12:48:23;;;;;;;18.77;9.65;;;19.60;52.50;;;;;;5074977;28;20024;-66
2022/03/27 12:50:53;;;;;;;17.48;9.85;;;19.50;53.50;;;;;;5071480;28;20029;-68
2022/03/27 12:53:20;;;;;;;22.27;10.27;;;19.50;53.00;;;;;;5074836;28;20413;-67
2022/03/27 12:55:55;;;;;;;16.42;9.18;;;19.50;52.90;;;;;;5074753;28;20025;-69
2022/03/27 12:58:35;;;;;;;17.08;10.52;;;19.60;52.90;;;;;;5074898;28;20055;-69
2022/03/27 13:01:04;;;;;;;20.27;9.73;;;19.60;52.70;;;;;;5074361;28;20020;-69
2022/03/27 13:03:30;;;;;;;18.38;9.75;;;19.60;52.70;;;;;;5074173;28;20029;-69